createdAt,value
2022-10-13T00:00:48.678Z,17.70
2022-10-13T00:03:55.464Z,19.60
2022-10-13T00:06:46.977Z,22.57
2022-10-13T00:09:43.816Z,15.33
2022-10-13T00:12:47.702Z,15.60
2022-10-13T00:15:50.953Z,18.83
2022-10-13T00:18:55.904Z,22.07
2022-10-13T00:21:48.178Z,20.37
2022-10-13T00:24:40.054Z,21.37
2022-10-13T00:27:42.708Z,19.97
2022-10-13T00:30:37.965Z,12.47
2022-10-13T00:33:29.071Z,16.53
2022-10-13T00:36:19.771Z,19.70
2022-10-13T00:39:10.085Z,18.27
2022-10-13T00:42:06.737Z,19.70
2022-10-13T00:48:22.259Z,21.17
2022-10-13T00:51:18.573Z,15.80
2022-10-13T00:54:13.588Z,19.30
2022-10-13T00:57:08.693Z,19.73
2022-10-13T01:00:04.185Z,14.87
2022-10-13T01:02:57.387Z,13.87
2022-10-13T01:06:11.241Z,15.97
2022-10-13T01:09:03.677Z,17.53
2022-10-13T01:12:06.412Z,23.90
2022-10-13T01:19:38.955Z,22.83
2022-10-13T01:22:57.615Z,22.90
2022-10-13T01:26:22.678Z,29.13
2022-10-13T01:29:38.646Z,24.40
2022-10-13T01:32:44.945Z,21.60
2022-10-13T01:36:07.920Z,18.93
2022-10-13T01:39:04.527Z,34.30
2022-10-13T01:41:59.125Z,24.23
2022-10-13T01:48:37.112Z,21.70
2022-10-13T01:51:37.407Z,13.30
2022-10-13T01:54:55.614Z,27.60
2022-10-13T02:02:04.220Z,17.37
2022-10-13T02:05:09.963Z,19.43
2022-10-13T02:08:15.806Z,18.70
2022-10-13T02:11:15.841Z,27.83
2022-10-13T02:14:24.895Z,23.00
2022-10-13T02:17:16.392Z,17.33
2022-10-13T02:20:21.320Z,19.27
2022-10-13T02:23:17.453Z,19.97
2022-10-13T02:26:07.452Z,20.10
2022-10-13T02:28:56.844Z,32.23
2022-10-13T02:31:49.317Z,18.83
2022-10-13T02:34:43.964Z,16.30
2022-10-13T02:37:46.688Z,18.70
2022-10-13T02:40:36.934Z,18.00
2022-10-13T04:40:21.798Z,15.50
2022-10-13T04:43:12.485Z,23.50
2022-10-13T04:46:05.314Z,29.07
2022-10-13T04:48:54.816Z,25.23
2022-10-13T04:51:43.204Z,16.50
2022-10-13T04:54:31.480Z,19.83
2022-10-13T04:57:21.433Z,15.80
2022-10-13T05:00:11.909Z,20.70
2022-10-13T05:03:00.292Z,26.97
2022-10-13T05:05:48.915Z,18.40
2022-10-13T05:08:38.134Z,19.10
2022-10-13T05:11:28.515Z,23.47
2022-10-13T05:14:18.778Z,24.90
2022-10-13T05:17:07.367Z,24.47
2022-10-13T05:19:56.224Z,24.23
2022-10-13T05:22:45.186Z,24.13
2022-10-13T05:25:35.548Z,19.47
2022-10-13T05:28:24.880Z,20.80
2022-10-13T05:31:18.726Z,18.27
2022-10-13T05:34:08.789Z,23.50
2022-10-13T05:36:59.892Z,19.37
2022-10-13T05:39:48.921Z,23.10
2022-10-13T05:42:40.583Z,28.17
2022-10-13T05:45:34.166Z,18.20
2022-10-13T05:48:25.799Z,21.70
2022-10-13T05:51:21.640Z,25.60
2022-10-13T05:54:15.217Z,29.57
2022-10-13T05:57:08.051Z,20.43
2022-10-13T06:00:02.527Z,23.77
2022-10-13T06:06:04.763Z,31.67
2022-10-13T06:08:54.426Z,28.70
2022-10-13T06:11:43.567Z,30.73
2022-10-13T06:14:35.905Z,36.43
2022-10-13T06:17:26.255Z,24.40
2022-10-13T06:20:17.688Z,25.83
2022-10-13T06:23:08.140Z,27.43
2022-10-13T06:25:56.568Z,23.07
2022-10-13T06:28:50.018Z,24.77
2022-10-13T06:31:40.170Z,23.30
2022-10-13T06:34:29.079Z,22.70
2022-10-13T06:37:17.869Z,25.77
2022-10-13T06:40:09.370Z,22.80
2022-10-13T06:42:58.623Z,29.03
2022-10-13T06:45:47.008Z,26.20
2022-10-13T06:48:36.460Z,41.10
2022-10-13T06:51:26.915Z,31.17
2022-10-13T06:54:16.171Z,24.00
2022-10-13T06:57:08.661Z,25.83
2022-10-13T06:59:57.346Z,33.60
2022-10-13T07:02:46.782Z,22.70
2022-10-13T07:05:35.710Z,29.77
2022-10-13T07:08:30.194Z,30.97
2022-10-13T07:11:19.392Z,23.43
2022-10-13T07:14:12.566Z,34.10
2022-10-13T07:17:01.609Z,31.87
2022-10-13T07:19:51.438Z,38.80
2022-10-13T07:22:41.244Z,32.10
2022-10-13T07:25:29.585Z,29.30
2022-10-13T07:28:18.828Z,36.10
2022-10-13T07:31:14.102Z,27.03
2022-10-13T07:34:04.841Z,26.83
2022-10-13T07:36:53.808Z,30.10
2022-10-13T07:39:42.484Z,26.27
2022-10-13T07:42:33.966Z,32.03
2022-10-13T07:45:22.643Z,27.90
2022-10-13T07:48:16.014Z,32.30
2022-10-13T07:51:09.616Z,38.37
2022-10-13T07:54:00.292Z,28.90
2022-10-13T07:56:53.893Z,35.43
2022-10-13T07:59:43.051Z,25.30
2022-10-13T08:02:32.694Z,31.10
2022-10-13T08:05:25.506Z,24.83
2022-10-13T08:08:16.163Z,21.43
2022-10-13T08:11:06.545Z,20.23
2022-10-13T08:13:56.172Z,23.30
2022-10-13T08:16:48.683Z,21.70
2022-10-13T08:19:41.505Z,27.03
2022-10-13T08:22:31.191Z,25.70
2022-10-13T08:25:19.569Z,27.80
2022-10-13T08:28:20.348Z,25.13
2022-10-13T08:31:08.873Z,22.10
2022-10-13T08:33:57.770Z,23.43
2022-10-13T08:36:46.593Z,19.90
2022-10-13T08:39:36.304Z,21.60
2022-10-13T08:42:25.033Z,26.47
2022-10-13T08:48:33.584Z,28.63
2022-10-13T08:51:22.370Z,20.13
2022-10-13T08:54:14.366Z,23.23
2022-10-13T08:57:05.380Z,25.23
2022-10-13T08:59:54.037Z,22.70
2022-10-13T09:02:45.681Z,30.37
2022-10-13T09:05:42.671Z,24.77
2022-10-13T09:08:35.763Z,21.00
2022-10-13T09:11:26.923Z,23.73
2022-10-13T09:14:24.769Z,29.17
2022-10-13T09:17:19.989Z,37.23
2022-10-13T09:20:36.936Z,31.70
2022-10-13T09:23:31.708Z,32.33
2022-10-13T09:26:23.680Z,31.07
2022-10-13T09:29:15.872Z,28.70
2022-10-13T09:32:21.211Z,29.17
2022-10-13T09:35:23.651Z,29.40
2022-10-13T09:38:17.260Z,30.53
2022-10-13T09:41:14.151Z,31.73
2022-10-13T09:44:12.397Z,27.17
2022-10-13T09:47:03.291Z,28.17
2022-10-13T09:50:20.349Z,34.43
2022-10-13T09:53:22.153Z,21.70
2022-10-13T09:56:19.614Z,27.07
2022-10-13T09:59:18.221Z,20.30
2022-10-13T10:02:22.543Z,34.20
2022-10-13T10:05:24.280Z,25.57
2022-10-13T10:08:18.403Z,24.27
2022-10-13T10:11:14.053Z,28.10
2022-10-13T10:14:13.859Z,24.67
2022-10-13T10:17:08.717Z,32.93
2022-10-13T10:20:06.372Z,30.77
2022-10-13T10:23:01.856Z,29.30
2022-10-13T10:25:54.384Z,25.10
2022-10-13T10:28:58.053Z,30.30
2022-10-13T10:32:08.454Z,21.87
2022-10-13T10:35:01.472Z,26.23
2022-10-13T10:38:11.550Z,25.60
2022-10-13T10:41:09.008Z,29.33
2022-10-13T10:44:02.921Z,29.83
2022-10-13T10:46:52.693Z,28.13
2022-10-13T10:49:43.359Z,25.87
2022-10-13T10:52:44.719Z,21.57
2022-10-13T10:55:44.980Z,27.60
2022-10-13T10:58:44.822Z,20.83
2022-10-13T11:01:39.839Z,23.93
2022-10-13T11:04:44.725Z,31.77
2022-10-13T11:08:01.363Z,27.13
2022-10-13T11:11:35.046Z,25.00
2022-10-13T11:14:32.766Z,30.63
2022-10-13T11:17:29.081Z,28.37
2022-10-13T11:21:04.544Z,29.33
2022-10-13T11:23:57.359Z,24.77
2022-10-13T11:26:49.908Z,22.73
2022-10-13T11:29:54.964Z,20.50
2022-10-13T11:32:55.524Z,18.57
2022-10-13T11:35:44.372Z,21.00
2022-10-13T11:38:38.769Z,25.30
2022-10-13T11:41:34.638Z,22.50
2022-10-13T11:44:33.983Z,20.70
2022-10-13T11:47:54.152Z,27.63
2022-10-13T11:50:52.776Z,20.60
2022-10-13T11:53:51.468Z,25.73
2022-10-13T11:56:48.809Z,22.20
2022-10-13T11:59:38.626Z,29.27
2022-10-13T12:02:29.242Z,30.13
2022-10-13T12:05:23.555Z,21.30
2022-10-13T12:08:12.237Z,25.83
2022-10-13T12:11:04.599Z,20.70
2022-10-13T12:13:54.725Z,22.10
2022-10-13T12:19:44.117Z,24.63
2022-10-13T12:22:35.700Z,22.37
2022-10-13T12:25:30.576Z,16.87
2022-10-13T12:28:20.692Z,23.90
2022-10-13T12:31:20.618Z,16.17
2022-10-13T12:34:23.100Z,17.43
2022-10-13T12:37:20.013Z,23.60
2022-10-13T12:40:15.221Z,25.20
2022-10-13T12:43:05.586Z,15.77
2022-10-13T12:45:54.174Z,15.43
2022-10-13T12:48:50.451Z,19.30
2022-10-13T12:51:41.686Z,20.20
2022-10-13T12:54:33.794Z,20.23
2022-10-13T12:57:35.781Z,12.37
2022-10-13T13:00:27.827Z,15.13
2022-10-13T13:03:24.055Z,16.40
2022-10-13T13:06:28.751Z,22.03
2022-10-13T13:09:33.313Z,15.10
2022-10-13T13:12:27.741Z,12.93
2022-10-13T13:15:23.023Z,13.87
2022-10-13T13:18:36.374Z,20.17
2022-10-13T13:21:26.693Z,29.03
2022-10-13T13:24:28.895Z,14.97
2022-10-13T13:27:29.449Z,24.13
2022-10-13T13:30:19.543Z,18.83
2022-10-13T13:35:58.135Z,31.33
2022-10-13T13:38:46.536Z,26.87
2022-10-13T13:41:34.887Z,17.90
2022-10-13T13:44:24.522Z,16.97
2022-10-13T13:47:20.664Z,14.63
2022-10-13T13:50:17.117Z,18.77
2022-10-13T13:53:07.029Z,18.20
2022-10-13T13:55:55.467Z,14.40
2022-10-13T13:58:44.764Z,17.97
2022-10-13T14:01:35.533Z,18.10
2022-10-13T14:04:24.202Z,23.00
2022-10-13T14:07:14.518Z,15.90
2022-10-13T14:10:10.304Z,20.53
2022-10-13T14:12:58.675Z,15.60
2022-10-13T14:15:47.343Z,13.90
2022-10-13T14:18:37.133Z,20.80
2022-10-13T14:21:25.580Z,17.60
2022-10-13T14:24:13.971Z,17.37
2022-10-13T14:27:03.648Z,14.00
2022-10-13T14:29:52.027Z,16.50
2022-10-13T14:32:40.881Z,20.00
2022-10-13T14:35:31.224Z,13.73
2022-10-13T14:38:19.338Z,25.67
2022-10-13T14:41:08.242Z,20.00
2022-10-13T14:43:57.373Z,22.03
2022-10-13T14:46:46.046Z,17.00
2022-10-13T14:49:34.868Z,18.60
2022-10-13T14:52:25.512Z,18.57
2022-10-13T14:55:13.743Z,31.23
2022-10-13T14:58:02.894Z,19.93
2022-10-13T15:00:52.126Z,17.17
2022-10-13T15:03:40.523Z,19.13
2022-10-13T15:06:28.922Z,14.23
2022-10-13T15:09:18.772Z,19.00
2022-10-13T15:12:07.393Z,16.77
2022-10-13T15:14:55.951Z,16.23
2022-10-13T15:17:44.410Z,19.40
2022-10-13T15:20:33.779Z,28.97
2022-10-13T15:23:22.447Z,21.90
2022-10-13T15:26:14.256Z,13.60
2022-10-13T15:29:05.302Z,18.47
2022-10-13T15:31:53.757Z,18.90
2022-10-13T15:34:42.069Z,24.47
2022-10-13T15:37:31.936Z,26.63
2022-10-13T15:40:20.782Z,21.37
2022-10-13T15:43:11.305Z,24.00
2022-10-13T15:46:05.438Z,20.20
2022-10-13T15:48:55.780Z,20.87
2022-10-13T15:51:44.170Z,17.07
2022-10-13T15:54:32.663Z,21.77
2022-10-13T15:57:21.452Z,29.30
2022-10-13T16:00:14.296Z,24.67
2022-10-13T16:03:04.488Z,25.87
2022-10-13T16:05:55.407Z,23.30
2022-10-13T16:08:47.130Z,24.90
2022-10-13T16:11:35.640Z,28.67
2022-10-13T16:14:25.775Z,23.37
2022-10-13T16:17:15.465Z,30.57
2022-10-13T16:20:06.837Z,21.63
2022-10-13T16:22:55.809Z,27.33
2022-10-13T16:25:44.027Z,24.33
2022-10-13T16:28:33.073Z,29.10
2022-10-13T16:31:21.490Z,34.63
2022-10-13T16:34:11.828Z,27.33
2022-10-13T16:37:00.266Z,30.90
2022-10-13T16:39:51.974Z,20.73
2022-10-13T16:42:42.591Z,25.07
2022-10-13T16:45:55.249Z,30.87
2022-10-13T16:48:39.400Z,31.67
2022-10-13T16:51:29.413Z,35.27
2022-10-13T16:54:17.730Z,36.03
2022-10-13T16:57:06.150Z,31.87
2022-10-13T16:59:55.146Z,75.77
2022-10-13T17:02:43.630Z,68.20
2022-10-13T17:05:32.142Z,37.70
2022-10-13T17:08:21.752Z,35.47
2022-10-13T17:11:11.817Z,28.63
2022-10-13T17:14:01.187Z,26.70
2022-10-13T17:16:54.140Z,24.10
2022-10-13T17:19:50.865Z,33.73
2022-10-13T17:22:40.022Z,31.23
2022-10-13T17:25:36.741Z,20.63
2022-10-13T17:28:25.266Z,20.70
2022-10-13T17:31:15.742Z,20.40
2022-10-13T17:34:06.273Z,22.70
2022-10-13T17:37:01.874Z,26.73
2022-10-13T17:39:51.229Z,25.10
2022-10-13T17:42:42.080Z,26.00
2022-10-13T17:45:30.468Z,25.13
2022-10-13T17:48:23.058Z,27.47
2022-10-13T17:51:14.011Z,30.53
2022-10-13T17:54:02.355Z,35.80
2022-10-13T17:56:50.693Z,32.53
2022-10-13T17:59:42.078Z,28.53
2022-10-13T18:02:30.468Z,29.30
2022-10-13T18:05:19.342Z,23.97
2022-10-13T18:08:09.855Z,22.67
2022-10-13T18:11:07.688Z,24.43
2022-10-13T18:13:59.475Z,22.67
2022-10-13T18:16:52.402Z,33.00
2022-10-13T18:19:44.583Z,26.50
2022-10-13T18:22:33.268Z,24.20
2022-10-13T18:25:21.579Z,27.43
2022-10-13T18:28:09.921Z,38.63
2022-10-13T18:31:04.525Z,30.93
2022-10-13T18:33:58.428Z,29.87
2022-10-13T18:36:48.594Z,29.10
2022-10-13T18:39:37.617Z,27.70
2022-10-13T18:42:27.093Z,31.73
2022-10-13T18:45:17.750Z,26.83
2022-10-13T18:48:09.174Z,27.60
2022-10-13T18:51:04.277Z,27.60
2022-10-13T18:53:55.308Z,32.20
2022-10-13T18:56:43.904Z,33.50
2022-10-13T18:59:33.074Z,34.80
2022-10-13T19:02:37.792Z,39.53
2022-10-13T19:05:25.977Z,49.60
2022-10-13T19:08:15.947Z,36.13
2022-10-13T19:11:17.200Z,33.43
2022-10-13T19:14:07.279Z,41.20
2022-10-13T19:17:00.868Z,30.03
2022-10-13T19:19:50.161Z,36.20
2022-10-13T19:22:38.371Z,29.00
2022-10-13T19:25:27.891Z,31.30
2022-10-13T19:28:16.570Z,35.50
2022-10-13T19:31:11.766Z,29.07
2022-10-13T19:34:00.142Z,33.27
2022-10-13T19:36:49.433Z,35.00
2022-10-13T19:39:37.753Z,37.30
2022-10-13T19:42:28.070Z,28.80
2022-10-13T19:45:26.769Z,32.50
2022-10-13T19:48:16.896Z,28.50
2022-10-13T19:51:08.526Z,34.53
2022-10-13T19:53:57.232Z,31.30
2022-10-13T19:56:52.446Z,31.17
2022-10-13T19:59:47.445Z,40.83
2022-10-13T20:02:40.454Z,35.23
2022-10-13T20:05:30.968Z,33.77
2022-10-13T20:08:20.425Z,34.53
2022-10-13T20:11:09.913Z,29.40
2022-10-13T20:13:59.693Z,31.97
2022-10-13T20:17:02.590Z,43.90
2022-10-13T20:19:51.357Z,38.50
2022-10-13T20:22:48.036Z,38.23
2022-10-13T20:25:40.626Z,41.60
2022-10-13T20:28:31.296Z,38.77
2022-10-13T20:31:26.050Z,38.43
2022-10-13T20:34:19.112Z,39.03
2022-10-13T20:37:08.459Z,47.93
2022-10-13T20:39:57.325Z,42.03
2022-10-13T20:42:50.785Z,38.03
2022-10-13T20:45:40.927Z,43.40
2022-10-13T20:48:51.069Z,38.97
2022-10-13T20:51:43.714Z,44.30
2022-10-13T20:54:33.892Z,50.37
2022-10-13T20:57:23.931Z,41.30
2022-10-13T21:00:14.483Z,43.23
2022-10-13T21:03:10.016Z,41.83
2022-10-13T21:05:59.389Z,37.03
2022-10-13T21:08:54.295Z,42.53
2022-10-13T21:11:44.973Z,36.90
2022-10-13T21:14:34.724Z,53.13
2022-10-13T21:17:23.822Z,40.13
2022-10-13T21:20:19.390Z,39.87
2022-10-13T21:23:14.630Z,40.70
2022-10-13T21:26:08.459Z,45.73
2022-10-13T21:28:59.011Z,46.13
2022-10-13T21:31:51.107Z,45.67
2022-10-13T21:34:42.712Z,42.70
2022-10-13T21:37:38.795Z,41.30
2022-10-13T21:40:28.047Z,45.00
2022-10-13T21:43:20.267Z,50.20
2022-10-13T21:46:11.871Z,47.47
2022-10-13T21:49:01.731Z,38.03
2022-10-13T21:51:52.316Z,51.43
2022-10-13T21:55:09.904Z,45.97
2022-10-13T21:58:10.044Z,41.77
2022-10-13T22:01:22.495Z,49.80
2022-10-13T22:29:06.073Z,62.40
2022-10-13T22:32:08.190Z,50.73
2022-10-13T22:35:19.409Z,58.70
2022-10-13T22:38:24.014Z,41.93
2022-10-13T22:41:18.619Z,44.13
2022-10-13T22:44:22.113Z,42.90
2022-10-13T22:47:26.587Z,49.33
2022-10-13T22:50:31.327Z,48.90
2022-10-13T22:53:37.487Z,49.93
2022-10-13T22:56:39.656Z,44.10
2022-10-13T22:59:46.552Z,53.17
2022-10-13T23:02:43.261Z,49.13
2022-10-13T23:05:49.787Z,50.80
2022-10-13T23:08:42.206Z,49.80
2022-10-13T23:11:33.716Z,43.17
